sensor_id;sensor_type;location;lat;lon;timestamp;temperature;humidity
63013;DHT22;62113;45.624;11.700;2022-11-15T00:01:44;12.30;74.60
63013;DHT22;62113;45.624;11.700;2022-11-15T00:04:10;12.30;74.60
63013;DHT22;62113;45.624;11.700;2022-11-15T00:06:36;12.20;74.60
63013;DHT22;62113;45.624;11.700;2022-11-15T00:09:01;12.20;74.50
63013;DHT22;62113;45.624;11.700;2022-11-15T00:11:28;12.20;74.40
63013;DHT22;62113;45.624;11.700;2022-11-15T00:13:57;12.20;74.40
63013;DHT22;62113;45.624;11.700;2022-11-15T00:16:23;12.10;74.40
63013;DHT22;62113;45.624;11.700;2022-11-15T00:18:50;12.10;74.40
63013;DHT22;62113;45.624;11.700;2022-11-15T00:21:16;12.00;74.40
63013;DHT22;62113;45.624;11.700;2022-11-15T00:23:42;12.10;74.40
63013;DHT22;62113;45.624;11.700;2022-11-15T00:26:11;12.10;74.40
63013;DHT22;62113;45.624;11.700;2022-11-15T00:28:38;12.00;74.30
63013;DHT22;62113;45.624;11.700;2022-11-15T00:31:05;12.00;74.20
63013;DHT22;62113;45.624;11.700;2022-11-15T00:33:31;12.00;74.30
63013;DHT22;62113;45.624;11.700;2022-11-15T00:36:06;11.90;74.30
63013;DHT22;62113;45.624;11.700;2022-11-15T00:38:33;11.90;74.30
63013;DHT22;62113;45.624;11.700;2022-11-15T00:41:00;11.90;74.40
63013;DHT22;62113;45.624;11.700;2022-11-15T00:43:25;11.80;74.50
63013;DHT22;62113;45.624;11.700;2022-11-15T00:45:51;11.80;74.40
63013;DHT22;62113;45.624;11.700;2022-11-15T00:48:17;11.80;74.40
63013;DHT22;62113;45.624;11.700;2022-11-15T00:50:42;11.70;74.50
63013;DHT22;62113;45.624;11.700;2022-11-15T00:53:08;11.70;74.50
63013;DHT22;62113;45.624;11.700;2022-11-15T00:55:34;11.70;74.50
63013;DHT22;62113;45.624;11.700;2022-11-15T00:57:59;11.70;74.50
63013;DHT22;62113;45.624;11.700;2022-11-15T01:00:25;11.70;74.50
63013;DHT22;62113;45.624;11.700;2022-11-15T01:02:50;11.70;74.40
63013;DHT22;62113;45.624;11.700;2022-11-15T01:05:16;11.70;74.40
63013;DHT22;62113;45.624;11.700;2022-11-15T01:07:42;11.60;74.50
63013;DHT22;62113;45.624;11.700;2022-11-15T01:10:08;11.60;74.50
63013;DHT22;62113;45.624;11.700;2022-11-15T01:12:34;11.60;74.20
63013;DHT22;62113;45.624;11.700;2022-11-15T01:14:59;11.50;74.20
63013;DHT22;62113;45.624;11.700;2022-11-15T01:17:25;11.50;74.30
63013;DHT22;62113;45.624;11.700;2022-11-15T01:19:51;11.50;74.60
63013;DHT22;62113;45.624;11.700;2022-11-15T01:22:16;11.50;74.80
63013;DHT22;62113;45.624;11.700;2022-11-15T01:24:42;11.60;74.90
63013;DHT22;62113;45.624;11.700;2022-11-15T01:27:08;11.50;74.90
63013;DHT22;62113;45.624;11.700;2022-11-15T01:29:34;11.50;75.00
63013;DHT22;62113;45.624;11.700;2022-11-15T01:31:59;11.50;74.90
63013;DHT22;62113;45.624;11.700;2022-11-15T01:34:25;11.50;74.90
63013;DHT22;62113;45.624;11.700;2022-11-15T01:36:51;11.50;74.90
63013;DHT22;62113;45.624;11.700;2022-11-15T01:39:16;11.50;74.70
63013;DHT22;62113;45.624;11.700;2022-11-15T01:41:42;11.40;74.70
63013;DHT22;62113;45.624;11.700;2022-11-15T01:47:01;11.40;74.60
63013;DHT22;62113;45.624;11.700;2022-11-15T01:49:30;11.40;74.60
63013;DHT22;62113;45.624;11.700;2022-11-15T01:51:57;11.30;74.70
63013;DHT22;62113;45.624;11.700;2022-11-15T01:54:24;11.40;74.70
63013;DHT22;62113;45.624;11.700;2022-11-15T01:57:12;11.40;74.70
63013;DHT22;62113;45.624;11.700;2022-11-15T01:59:40;11.30;74.70
63013;DHT22;62113;45.624;11.700;2022-11-15T02:02:07;11.30;74.80
63013;DHT22;62113;45.624;11.700;2022-11-15T02:04:41;11.30;74.60
63013;DHT22;62113;45.624;11.700;2022-11-15T02:07:09;11.30;74.50
63013;DHT22;62113;45.624;11.700;2022-11-15T02:09:37;11.20;74.50
63013;DHT22;62113;45.624;11.700;2022-11-15T02:12:04;11.20;74.40
63013;DHT22;62113;45.624;11.700;2022-11-15T02:14:31;11.20;74.40
63013;DHT22;62113;45.624;11.700;2022-11-15T02:17:23;11.20;74.30
63013;DHT22;62113;45.624;11.700;2022-11-15T02:25:57;10.90;74.40
63013;DHT22;62113;45.624;11.700;2022-11-15T02:36:06;10.80;74.50
63013;DHT22;62113;45.624;11.700;2022-11-15T02:44:05;10.70;74.60
63013;DHT22;62113;45.624;11.700;2022-11-15T02:46:41;10.70;74.70
63013;DHT22;62113;45.624;11.700;2022-11-15T02:49:30;10.70;74.70
63013;DHT22;62113;45.624;11.700;2022-11-15T02:51:57;10.70;74.80
63013;DHT22;62113;45.624;11.700;2022-11-15T02:54:25;10.70;74.90
63013;DHT22;62113;45.624;11.700;2022-11-15T02:57:04;10.70;74.80
63013;DHT22;62113;45.624;11.700;2022-11-15T03:08:08;10.60;74.90
63013;DHT22;62113;45.624;11.700;2022-11-15T03:11:03;10.60;74.70
63013;DHT22;62113;45.624;11.700;2022-11-15T03:13:27;10.60;74.60
63013;DHT22;62113;45.624;11.700;2022-11-15T03:16:19;10.50;74.50
63013;DHT22;62113;45.624;11.700;2022-11-15T03:18:52;10.50;74.70
63013;DHT22;62113;45.624;11.700;2022-11-15T03:21:19;10.40;74.90
63013;DHT22;62113;45.624;11.700;2022-11-15T03:23:47;10.40;74.90
63013;DHT22;62113;45.624;11.700;2022-11-15T03:26:15;10.40;74.80
63013;DHT22;62113;45.624;11.700;2022-11-15T03:28:55;10.30;74.80
63013;DHT22;62113;45.624;11.700;2022-11-15T03:31:23;10.40;74.80
63013;DHT22;62113;45.624;11.700;2022-11-15T03:36:47;10.30;74.70
63013;DHT22;62113;45.624;11.700;2022-11-15T03:39:14;10.30;74.50
63013;DHT22;62113;45.624;11.700;2022-11-15T03:42:10;10.30;74.50
63013;DHT22;62113;45.624;11.700;2022-11-15T03:44:51;10.20;74.60
63013;DHT22;62113;45.624;11.700;2022-11-15T03:47:29;10.20;74.60
63013;DHT22;62113;45.624;11.700;2022-11-15T03:50:11;10.20;74.50
63013;DHT22;62113;45.624;11.700;2022-11-15T03:52:39;10.20;73.90
63013;DHT22;62113;45.624;11.700;2022-11-15T03:55:08;10.10;73.90
63013;DHT22;62113;45.624;11.700;2022-11-15T03:57:34;10.10;74.00
63013;DHT22;62113;45.624;11.700;2022-11-15T03:59:59;10.10;73.90
63013;DHT22;62113;45.624;11.700;2022-11-15T04:02:25;10.10;73.80
63013;DHT22;62113;45.624;11.700;2022-11-15T04:04:51;10.10;73.70
63013;DHT22;62113;45.624;11.700;2022-11-15T04:07:16;10.10;73.80
63013;DHT22;62113;45.624;11.700;2022-11-15T04:09:42;10.10;73.80
63013;DHT22;62113;45.624;11.700;2022-11-15T04:12:26;10.10;73.70
63013;DHT22;62113;45.624;11.700;2022-11-15T04:15:07;10.10;73.70
63013;DHT22;62113;45.624;11.700;2022-11-15T04:17:53;10.00;73.60
63013;DHT22;62113;45.624;11.700;2022-11-15T04:20:27;10.10;73.50
63013;DHT22;62113;45.624;11.700;2022-11-15T04:23:17;10.00;73.50
63013;DHT22;62113;45.624;11.700;2022-11-15T04:26:10;10.00;73.40
63013;DHT22;62113;45.624;11.700;2022-11-15T04:28:36;10.00;73.30
63013;DHT22;62113;45.624;11.700;2022-11-15T04:31:24;9.90;73.50
63013;DHT22;62113;45.624;11.700;2022-11-15T04:33:50;9.90;73.50
63013;DHT22;62113;45.624;11.700;2022-11-15T04:36:15;9.80;73.50
63013;DHT22;62113;45.624;11.700;2022-11-15T04:38:59;9.80;73.70
63013;DHT22;62113;45.624;11.700;2022-11-15T04:41:25;9.80;73.60
63013;DHT22;62113;45.624;11.700;2022-11-15T04:43:51;9.80;73.60
63013;DHT22;62113;45.624;11.700;2022-11-15T04:46:17;9.80;73.60
63013;DHT22;62113;45.624;11.700;2022-11-15T04:48:42;9.80;73.70
63013;DHT22;62113;45.624;11.700;2022-11-15T04:51:08;9.80;73.90
63013;DHT22;62113;45.624;11.700;2022-11-15T04:53:33;9.70;73.80
63013;DHT22;62113;45.624;11.700;2022-11-15T04:55:59;9.70;74.00
63013;DHT22;62113;45.624;11.700;2022-11-15T04:58:25;9.70;74.30
63013;DHT22;62113;45.624;11.700;2022-11-15T05:00:50;9.70;74.30
63013;DHT22;62113;45.624;11.700;2022-11-15T05:03:16;9.60;74.30
63013;DHT22;62113;45.624;11.700;2022-11-15T05:06:00;9.70;74.30
63013;DHT22;62113;45.624;11.700;2022-11-15T05:08:26;9.60;74.20
63013;DHT22;62113;45.624;11.700;2022-11-15T05:10:51;9.60;74.30
63013;DHT22;62113;45.624;11.700;2022-11-15T05:13:17;9.40;74.60
63013;DHT22;62113;45.624;11.700;2022-11-15T05:15:43;9.40;74.80
63013;DHT22;62113;45.624;11.700;2022-11-15T05:18:09;9.40;74.80
63013;DHT22;62113;45.624;11.700;2022-11-15T05:20:35;9.30;74.80
63013;DHT22;62113;45.624;11.700;2022-11-15T05:23:00;9.30;75.10
63013;DHT22;62113;45.624;11.700;2022-11-15T05:25:26;9.30;75.00
63013;DHT22;62113;45.624;11.700;2022-11-15T05:27:52;9.30;75.00
63013;DHT22;62113;45.624;11.700;2022-11-15T05:30:18;9.30;75.00
63013;DHT22;62113;45.624;11.700;2022-11-15T05:32:43;9.20;74.90
63013;DHT22;62113;45.624;11.700;2022-11-15T05:35:27;9.30;74.90
63013;DHT22;62113;45.624;11.700;2022-11-15T05:37:55;9.30;74.90
63013;DHT22;62113;45.624;11.700;2022-11-15T05:40:20;9.30;74.50
63013;DHT22;62113;45.624;11.700;2022-11-15T05:42:47;9.20;74.50
63013;DHT22;62113;45.624;11.700;2022-11-15T05:45:13;9.20;74.50
63013;DHT22;62113;45.624;11.700;2022-11-15T05:47:39;9.20;74.40
63013;DHT22;62113;45.624;11.700;2022-11-15T05:50:06;9.20;74.30
63013;DHT22;62113;45.624;11.700;2022-11-15T05:52:34;9.20;74.30
63013;DHT22;62113;45.624;11.700;2022-11-15T05:55:02;9.20;74.20
63013;DHT22;62113;45.624;11.700;2022-11-15T05:57:28;9.20;74.20
63013;DHT22;62113;45.624;11.700;2022-11-15T05:59:53;9.20;74.20
63013;DHT22;62113;45.624;11.700;2022-11-15T06:02:19;9.20;74.30
63013;DHT22;62113;45.624;11.700;2022-11-15T06:04:45;9.10;74.20
63013;DHT22;62113;45.624;11.700;2022-11-15T06:07:11;9.20;74.30
63013;DHT22;62113;45.624;11.700;2022-11-15T06:09:36;9.20;74.30
63013;DHT22;62113;45.624;11.700;2022-11-15T06:12:02;9.20;74.20
63013;DHT22;62113;45.624;11.700;2022-11-15T06:14:27;9.20;74.20
63013;DHT22;62113;45.624;11.700;2022-11-15T06:16:53;9.20;74.20
63013;DHT22;62113;45.624;11.700;2022-11-15T06:19:19;9.20;74.00
63013;DHT22;62113;45.624;11.700;2022-11-15T06:21:44;9.10;74.00
63013;DHT22;62113;45.624;11.700;2022-11-15T06:24:10;9.10;74.10
63013;DHT22;62113;45.624;11.700;2022-11-15T06:26:35;9.10;74.10
63013;DHT22;62113;45.624;11.700;2022-11-15T06:29:03;9.10;74.00
63013;DHT22;62113;45.624;11.700;2022-11-15T06:31:29;9.10;74.20
63013;DHT22;62113;45.624;11.700;2022-11-15T06:33:55;9.10;74.40
63013;DHT22;62113;45.624;11.700;2022-11-15T06:36:20;9.10;74.30
63013;DHT22;62113;45.624;11.700;2022-11-15T06:38:46;9.10;74.50
63013;DHT22;62113;45.624;11.700;2022-11-15T06:41:13;9.20;74.40
63013;DHT22;62113;45.624;11.700;2022-11-15T06:43:39;9.20;74.40
63013;DHT22;62113;45.624;11.700;2022-11-15T06:46:05;9.20;74.60
63013;DHT22;62113;45.624;11.700;2022-11-15T06:48:32;9.20;74.70
63013;DHT22;62113;45.624;11.700;2022-11-15T06:50:59;9.20;74.80
63013;DHT22;62113;45.624;11.700;2022-11-15T06:53:26;9.20;74.80
63013;DHT22;62113;45.624;11.700;2022-11-15T06:55:51;9.20;74.90
63013;DHT22;62113;45.624;11.700;2022-11-15T06:58:17;9.20;74.90
63013;DHT22;62113;45.624;11.700;2022-11-15T07:00:43;9.20;74.90
63013;DHT22;62113;45.624;11.700;2022-11-15T07:03:09;9.20;74.90
63013;DHT22;62113;45.624;11.700;2022-11-15T07:05:35;9.20;74.80
63013;DHT22;62113;45.624;11.700;2022-11-15T07:08:02;9.20;74.90
63013;DHT22;62113;45.624;11.700;2022-11-15T07:10:28;9.30;75.00
63013;DHT22;62113;45.624;11.700;2022-11-15T07:12:54;9.30;75.00
63013;DHT22;62113;45.624;11.700;2022-11-15T07:15:23;9.30;75.00
63013;DHT22;62113;45.624;11.700;2022-11-15T07:17:49;9.30;75.10
63013;DHT22;62113;45.624;11.700;2022-11-15T07:20:15;9.40;75.00
63013;DHT22;62113;45.624;11.700;2022-11-15T07:22:41;9.50;74.90
63013;DHT22;62113;45.624;11.700;2022-11-15T07:25:08;9.60;74.90
63013;DHT22;62113;45.624;11.700;2022-11-15T07:27:33;9.60;74.80
63013;DHT22;62113;45.624;11.700;2022-11-15T07:29:59;9.70;74.50
63013;DHT22;62113;45.624;11.700;2022-11-15T07:32:25;9.70;74.40
63013;DHT22;62113;45.624;11.700;2022-11-15T07:34:51;9.70;74.40
63013;DHT22;62113;45.624;11.700;2022-11-15T07:37:16;9.70;74.50
63013;DHT22;62113;45.624;11.700;2022-11-15T07:39:43;9.80;74.60
63013;DHT22;62113;45.624;11.700;2022-11-15T07:42:09;9.90;74.60
63013;DHT22;62113;45.624;11.700;2022-11-15T07:44:53;10.00;74.60
63013;DHT22;62113;45.624;11.700;2022-11-15T07:47:19;10.10;74.20
63013;DHT22;62113;45.624;11.700;2022-11-15T07:49:44;10.20;74.10
63013;DHT22;62113;45.624;11.700;2022-11-15T07:52:12;10.20;74.00
63013;DHT22;62113;45.624;11.700;2022-11-15T07:54:37;10.20;73.80
63013;DHT22;62113;45.624;11.700;2022-11-15T07:57:04;10.30;73.80
63013;DHT22;62113;45.624;11.700;2022-11-15T07:59:29;10.40;73.40
63013;DHT22;62113;45.624;11.700;2022-11-15T08:01:55;10.50;73.30
63013;DHT22;62113;45.624;11.700;2022-11-15T08:04:21;10.50;73.20
63013;DHT22;62113;45.624;11.700;2022-11-15T08:06:47;10.60;72.60
63013;DHT22;62113;45.624;11.700;2022-11-15T08:09:12;10.60;72.50
63013;DHT22;62113;45.624;11.700;2022-11-15T08:11:38;10.50;72.50
63013;DHT22;62113;45.624;11.700;2022-11-15T08:14:04;10.50;72.70
63013;DHT22;62113;45.624;11.700;2022-11-15T08:16:29;10.40;73.20
63013;DHT22;62113;45.624;11.700;2022-11-15T08:18:55;10.30;73.60
63013;DHT22;62113;45.624;11.700;2022-11-15T08:21:21;10.30;73.90
63013;DHT22;62113;45.624;11.700;2022-11-15T08:23:47;10.30;74.10
63013;DHT22;62113;45.624;11.700;2022-11-15T08:26:13;10.30;74.50
63013;DHT22;62113;45.624;11.700;2022-11-15T08:28:38;10.40;74.30
63013;DHT22;62113;45.624;11.700;2022-11-15T08:31:04;10.50;74.40
63013;DHT22;62113;45.624;11.700;2022-11-15T08:33:31;10.50;74.40
63013;DHT22;62113;45.624;11.700;2022-11-15T08:35:58;10.60;74.40
63013;DHT22;62113;45.624;11.700;2022-11-15T08:38:24;10.80;74.50
63013;DHT22;62113;45.624;11.700;2022-11-15T08:40:52;11.00;74.20
63013;DHT22;62113;45.624;11.700;2022-11-15T08:43:19;11.10;74.30
63013;DHT22;62113;45.624;11.700;2022-11-15T08:45:45;11.10;73.60
63013;DHT22;62113;45.624;11.700;2022-11-15T08:48:11;11.00;73.90
63013;DHT22;62113;45.624;11.700;2022-11-15T08:50:36;11.00;74.20
63013;DHT22;62113;45.624;11.700;2022-11-15T08:53:06;11.00;74.20
63013;DHT22;62113;45.624;11.700;2022-11-15T08:55:32;10.90;74.70
63013;DHT22;62113;45.624;11.700;2022-11-15T08:58:01;11.00;74.90
63013;DHT22;62113;45.624;11.700;2022-11-15T09:00:26;11.10;75.70
63013;DHT22;62113;45.624;11.700;2022-11-15T09:02:52;11.20;76.10
63013;DHT22;62113;45.624;11.700;2022-11-15T09:05:17;11.30;76.20
63013;DHT22;62113;45.624;11.700;2022-11-15T09:07:44;11.50;76.30
63013;DHT22;62113;45.624;11.700;2022-11-15T09:10:09;11.60;76.10
63013;DHT22;62113;45.624;11.700;2022-11-15T09:12:35;11.70;75.80
63013;DHT22;62113;45.624;11.700;2022-11-15T09:15:01;11.80;75.10
63013;DHT22;62113;45.624;11.700;2022-11-15T09:17:27;11.90;75.10
63013;DHT22;62113;45.624;11.700;2022-11-15T09:19:52;11.90;74.80
63013;DHT22;62113;45.624;11.700;2022-11-15T09:22:18;12.00;74.90
63013;DHT22;62113;45.624;11.700;2022-11-15T09:24:44;12.00;74.80
63013;DHT22;62113;45.624;11.700;2022-11-15T09:27:09;12.00;75.00
63013;DHT22;62113;45.624;11.700;2022-11-15T09:29:35;11.90;74.90
63013;DHT22;62113;45.624;11.700;2022-11-15T09:32:01;11.90;74.90
63013;DHT22;62113;45.624;11.700;2022-11-15T09:34:27;11.90;75.20
63013;DHT22;62113;45.624;11.700;2022-11-15T09:36:53;11.90;75.40
63013;DHT22;62113;45.624;11.700;2022-11-15T09:39:18;11.90;75.40
63013;DHT22;62113;45.624;11.700;2022-11-15T09:42:17;11.90;75.60
63013;DHT22;62113;45.624;11.700;2022-11-15T09:50:36;11.90;75.00
63013;DHT22;62113;45.624;11.700;2022-11-15T09:53:04;11.90;75.20
63013;DHT22;62113;45.624;11.700;2022-11-15T09:55:51;11.90;75.40
63013;DHT22;62113;45.624;11.700;2022-11-15T10:01:36;12.00;75.00
63013;DHT22;62113;45.624;11.700;2022-11-15T10:03:59;12.00;74.90
63013;DHT22;62113;45.624;11.700;2022-11-15T10:06:26;12.10;75.00
63013;DHT22;62113;45.624;11.700;2022-11-15T10:09:17;12.20;75.20
63013;DHT22;62113;45.624;11.700;2022-11-15T10:11:44;12.20;75.40
63013;DHT22;62113;45.624;11.700;2022-11-15T10:19:23;13.00;75.50
63013;DHT22;62113;45.624;11.700;2022-11-15T10:24:34;14.10;70.70
63013;DHT22;62113;45.624;11.700;2022-11-15T10:27:00;14.40;70.70
63013;DHT22;62113;45.624;11.700;2022-11-15T10:29:25;14.70;69.50
63013;DHT22;62113;45.624;11.700;2022-11-15T10:31:52;14.80;68.30
63013;DHT22;62113;45.624;11.700;2022-11-15T10:34:20;14.60;69.10
63013;DHT22;62113;45.624;11.700;2022-11-15T10:36:56;14.50;69.60
63013;DHT22;62113;45.624;11.700;2022-11-15T10:39:22;14.40;69.40
63013;DHT22;62113;45.624;11.700;2022-11-15T10:41:48;14.20;69.70
63013;DHT22;62113;45.624;11.700;2022-11-15T10:47:04;14.00;70.50
63013;DHT22;62113;45.624;11.700;2022-11-15T10:49:31;13.80;71.00
63013;DHT22;62113;45.624;11.700;2022-11-15T10:54:43;13.60;72.30
63013;DHT22;62113;45.624;11.700;2022-11-15T10:57:22;13.50;72.80
63013;DHT22;62113;45.624;11.700;2022-11-15T10:59:52;13.40;73.20
63013;DHT22;62113;45.624;11.700;2022-11-15T11:04:56;13.20;73.70
63013;DHT22;62113;45.624;11.700;2022-11-15T11:07:25;13.10;73.80
63013;DHT22;62113;45.624;11.700;2022-11-15T11:10:16;13.10;73.80
63013;DHT22;62113;45.624;11.700;2022-11-15T11:12:42;13.00;74.00
63013;DHT22;62113;45.624;11.700;2022-11-15T11:15:12;13.00;73.80
63013;DHT22;62113;45.624;11.700;2022-11-15T11:18:07;13.00;73.80
63013;DHT22;62113;45.624;11.700;2022-11-15T11:20:48;13.00;73.70
63013;DHT22;62113;45.624;11.700;2022-11-15T11:23:55;13.00;73.80
63013;DHT22;62113;45.624;11.700;2022-11-15T11:32:25;13.00;74.90
63013;DHT22;62113;45.624;11.700;2022-11-15T11:42:58;13.10;75.00
63013;DHT22;62113;45.624;11.700;2022-11-15T11:50:30;13.10;74.90
63013;DHT22;62113;45.624;11.700;2022-11-15T11:53:25;13.20;75.00
63013;DHT22;62113;45.624;11.700;2022-11-15T11:55:54;13.20;75.20
63013;DHT22;62113;45.624;11.700;2022-11-15T11:58:24;13.20;74.90
63013;DHT22;62113;45.624;11.700;2022-11-15T12:03:45;13.20;74.70
63013;DHT22;62113;45.624;11.700;2022-11-15T12:09:21;13.30;74.70
63013;DHT22;62113;45.624;11.700;2022-11-15T12:11:55;13.30;74.80
63013;DHT22;62113;45.624;11.700;2022-11-15T12:14:26;13.30;75.00
63013;DHT22;62113;45.624;11.700;2022-11-15T12:16:52;13.30;74.90
63013;DHT22;62113;45.624;11.700;2022-11-15T12:19:18;13.30;74.90
63013;DHT22;62113;45.624;11.700;2022-11-15T12:21:48;13.30;75.00
63013;DHT22;62113;45.624;11.700;2022-11-15T12:26:50;13.30;74.90
63013;DHT22;62113;45.624;11.700;2022-11-15T12:29:29;13.30;74.90
63013;DHT22;62113;45.624;11.700;2022-11-15T12:31:57;13.30;74.80
63013;DHT22;62113;45.624;11.700;2022-11-15T12:36:54;13.30;74.80
63013;DHT22;62113;45.624;11.700;2022-11-15T12:39:20;13.30;74.90
63013;DHT22;62113;45.624;11.700;2022-11-15T13:00:04;13.30;75.00
63013;DHT22;62113;45.624;11.700;2022-11-15T13:02:39;13.30;75.10
63013;DHT22;62113;45.624;11.700;2022-11-15T13:23:14;13.30;75.10
63013;DHT22;62113;45.624;11.700;2022-11-15T13:28:47;13.30;75.30
63013;DHT22;62113;45.624;11.700;2022-11-15T13:31:36;13.30;75.30
63013;DHT22;62113;45.624;11.700;2022-11-15T13:34:30;13.30;75.20
63013;DHT22;62113;45.624;11.700;2022-11-15T13:36:58;13.30;75.30
63013;DHT22;62113;45.624;11.700;2022-11-15T13:39:32;13.30;75.50
63013;DHT22;62113;45.624;11.700;2022-11-15T13:41:59;13.30;75.60
63013;DHT22;62113;45.624;11.700;2022-11-15T13:44:30;13.30;75.80
63013;DHT22;62113;45.624;11.700;2022-11-15T13:47:04;13.30;75.70
63013;DHT22;62113;45.624;11.700;2022-11-15T13:49:32;13.30;75.70
63013;DHT22;62113;45.624;11.700;2022-11-15T13:52:00;13.20;75.70
63013;DHT22;62113;45.624;11.700;2022-11-15T13:57:11;13.20;75.90
63013;DHT22;62113;45.624;11.700;2022-11-15T13:59:49;13.20;75.90
63013;DHT22;62113;45.624;11.700;2022-11-15T14:02:25;13.20;76.00
63013;DHT22;62113;45.624;11.700;2022-11-15T14:04:57;13.10;76.10
63013;DHT22;62113;45.624;11.700;2022-11-15T14:07:26;13.20;76.20
63013;DHT22;62113;45.624;11.700;2022-11-15T14:09:53;13.10;76.30
63013;DHT22;62113;45.624;11.700;2022-11-15T14:14:48;13.10;76.10
63013;DHT22;62113;45.624;11.700;2022-11-15T14:19:53;13.10;76.40
63013;DHT22;62113;45.624;11.700;2022-11-15T14:22:24;13.10;76.60
63013;DHT22;62113;45.624;11.700;2022-11-15T14:27:42;13.00;76.70
63013;DHT22;62113;45.624;11.700;2022-11-15T14:30:17;13.00;76.90
63013;DHT22;62113;45.624;11.700;2022-11-15T14:32:47;13.00;77.00
63013;DHT22;62113;45.624;11.700;2022-11-15T14:35:20;13.00;77.20
63013;DHT22;62113;45.624;11.700;2022-11-15T14:37:46;13.00;77.10
63013;DHT22;62113;45.624;11.700;2022-11-15T14:40:17;12.90;77.30
63013;DHT22;62113;45.624;11.700;2022-11-15T14:42:45;12.90;77.40
63013;DHT22;62113;45.624;11.700;2022-11-15T14:45:21;12.90;77.50
63013;DHT22;62113;45.624;11.700;2022-11-15T14:47:48;12.90;77.50
63013;DHT22;62113;45.624;11.700;2022-11-15T14:50:19;12.80;77.50
63013;DHT22;62113;45.624;11.700;2022-11-15T14:52:45;12.90;77.50
63013;DHT22;62113;45.624;11.700;2022-11-15T14:55:14;12.90;77.50
63013;DHT22;62113;45.624;11.700;2022-11-15T14:57:42;12.80;77.60
63013;DHT22;62113;45.624;11.700;2022-11-15T15:00:08;12.80;77.70
63013;DHT22;62113;45.624;11.700;2022-11-15T15:02:35;12.80;77.80
63013;DHT22;62113;45.624;11.700;2022-11-15T15:05:01;12.80;77.80
63013;DHT22;62113;45.624;11.700;2022-11-15T15:07:28;12.80;77.60
63013;DHT22;62113;45.624;11.700;2022-11-15T15:09:54;12.80;77.40
63013;DHT22;62113;45.624;11.700;2022-11-15T15:12:21;12.80;77.50
63013;DHT22;62113;45.624;11.700;2022-11-15T15:14:50;12.80;77.60
63013;DHT22;62113;45.624;11.700;2022-11-15T15:17:16;12.80;77.60
63013;DHT22;62113;45.624;11.700;2022-11-15T15:19:42;12.70;77.70
63013;DHT22;62113;45.624;11.700;2022-11-15T15:22:13;12.70;78.00
63013;DHT22;62113;45.624;11.700;2022-11-15T15:24:39;12.70;78.20
63013;DHT22;62113;45.624;11.700;2022-11-15T15:27:04;12.70;78.10
63013;DHT22;62113;45.624;11.700;2022-11-15T15:29:30;12.70;78.20
63013;DHT22;62113;45.624;11.700;2022-11-15T15:31:56;12.70;78.30
63013;DHT22;62113;45.624;11.700;2022-11-15T15:34:21;12.80;78.20
63013;DHT22;62113;45.624;11.700;2022-11-15T15:36:47;12.80;78.20
63013;DHT22;62113;45.624;11.700;2022-11-15T15:39:13;12.70;78.20
63013;DHT22;62113;45.624;11.700;2022-11-15T15:41:38;12.70;78.50
63013;DHT22;62113;45.624;11.700;2022-11-15T15:44:04;12.70;78.60
63013;DHT22;62113;45.624;11.700;2022-11-15T15:46:30;12.70;78.70
63013;DHT22;62113;45.624;11.700;2022-11-15T15:48:55;12.70;78.70
63013;DHT22;62113;45.624;11.700;2022-11-15T15:51:21;12.70;79.00
63013;DHT22;62113;45.624;11.700;2022-11-15T15:53:47;12.70;79.10
63013;DHT22;62113;45.624;11.700;2022-11-15T15:56:13;12.60;79.20
63013;DHT22;62113;45.624;11.700;2022-11-15T15:58:38;12.70;79.40
63013;DHT22;62113;45.624;11.700;2022-11-15T16:01:04;12.70;79.50
63013;DHT22;62113;45.624;11.700;2022-11-15T16:03:30;12.70;79.50
63013;DHT22;62113;45.624;11.700;2022-11-15T16:05:56;12.70;79.40
63013;DHT22;62113;45.624;11.700;2022-11-15T16:08:23;12.70;79.10
63013;DHT22;62113;45.624;11.700;2022-11-15T16:10:50;12.70;79.50
63013;DHT22;62113;45.624;11.700;2022-11-15T16:13:15;12.60;79.60
63013;DHT22;62113;45.624;11.700;2022-11-15T16:15:43;12.70;79.70
63013;DHT22;62113;45.624;11.700;2022-11-15T16:18:14;12.60;79.70
63013;DHT22;62113;45.624;11.700;2022-11-15T16:20:45;12.60;79.80
63013;DHT22;62113;45.624;11.700;2022-11-15T16:23:14;12.60;79.40
63013;DHT22;62113;45.624;11.700;2022-11-15T16:25:47;12.70;79.30
63013;DHT22;62113;45.624;11.700;2022-11-15T16:28:31;12.70;79.40
63013;DHT22;62113;45.624;11.700;2022-11-15T16:31:05;12.60;79.60
63013;DHT22;62113;45.624;11.700;2022-11-15T16:33:31;12.60;79.70
63013;DHT22;62113;45.624;11.700;2022-11-15T16:35:57;12.60;79.70
63013;DHT22;62113;45.624;11.700;2022-11-15T16:38:23;12.60;79.80
63013;DHT22;62113;45.624;11.700;2022-11-15T16:40:48;12.60;79.90
63013;DHT22;62113;45.624;11.700;2022-11-15T16:43:14;12.60;79.60
63013;DHT22;62113;45.624;11.700;2022-11-15T16:45:40;12.60;79.60
63013;DHT22;62113;45.624;11.700;2022-11-15T16:48:06;12.60;79.50
63013;DHT22;62113;45.624;11.700;2022-11-15T16:50:34;12.60;79.60
63013;DHT22;62113;45.624;11.700;2022-11-15T16:53:06;12.60;79.70
63013;DHT22;62113;45.624;11.700;2022-11-15T16:55:31;12.60;79.70
63013;DHT22;62113;45.624;11.700;2022-11-15T16:57:57;12.50;79.70
63013;DHT22;62113;45.624;11.700;2022-11-15T17:00:23;12.50;79.70
63013;DHT22;62113;45.624;11.700;2022-11-15T17:02:50;12.50;79.80
63013;DHT22;62113;45.624;11.700;2022-11-15T17:05:18;12.50;79.80
63013;DHT22;62113;45.624;11.700;2022-11-15T17:07:49;12.50;80.00
63013;DHT22;62113;45.624;11.700;2022-11-15T17:10:20;12.50;80.10
63013;DHT22;62113;45.624;11.700;2022-11-15T17:12:46;12.50;80.20
63013;DHT22;62113;45.624;11.700;2022-11-15T17:15:12;12.50;79.90
63013;DHT22;62113;45.624;11.700;2022-11-15T17:17:38;12.50;80.00
63013;DHT22;62113;45.624;11.700;2022-11-15T17:20:05;12.50;80.00
63013;DHT22;62113;45.624;11.700;2022-11-15T17:22:35;12.50;80.00
63013;DHT22;62113;45.624;11.700;2022-11-15T17:25:01;12.60;79.80
63013;DHT22;62113;45.624;11.700;2022-11-15T17:27:27;12.50;79.70
63013;DHT22;62113;45.624;11.700;2022-11-15T17:29:52;12.50;79.70
63013;DHT22;62113;45.624;11.700;2022-11-15T17:32:18;12.50;79.70
63013;DHT22;62113;45.624;11.700;2022-11-15T17:34:43;12.40;80.00
63013;DHT22;62113;45.624;11.700;2022-11-15T17:37:09;12.40;80.10
63013;DHT22;62113;45.624;11.700;2022-11-15T17:39:34;12.40;80.30
63013;DHT22;62113;45.624;11.700;2022-11-15T17:42:00;12.40;80.40
63013;DHT22;62113;45.624;11.700;2022-11-15T17:44:25;12.40;80.10
63013;DHT22;62113;45.624;11.700;2022-11-15T17:46:51;12.50;80.10
63013;DHT22;62113;45.624;11.700;2022-11-15T17:49:17;12.50;80.00